Time;durP1;ratioP1;P1;durP2;ratioP2;P2;SDS_P1;SDS_P2;PMS_P1;PMS_P2;Temp;Humidity;BMP_temperature;BMP_pressure;BME280_temperature;BME280_humidity;BME280_pressure;Samples;Min_cycle;Max_cycle;Signal;HPM_P1;HPM_P2
2022/03/22 00:02:07;;;;;;;9.73;4.22;;;6.20;79.10;;;;;;6287101;22;20007;-89
2022/03/22 00:04:32;;;;;;;7.97;3.83;;;6.30;78.90;;;;;;6287533;22;20086;-88
2022/03/22 00:06:58;;;;;;;8.00;3.83;;;6.10;78.30;;;;;;6314454;22;20004;-88
2022/03/22 00:09:24;;;;;;;9.75;3.88;;;6.10;77.40;;;;;;6315381;22;19999;-89
2022/03/22 00:11:50;;;;;;;9.57;4.07;;;6.10;78.50;;;;;;6288031;22;20030;-89
2022/03/22 00:14:17;;;;;;;8.43;3.85;;;6.00;78.50;;;;;;6313372;22;20337;-88
2022/03/22 00:16:43;;;;;;;8.10;3.90;;;6.10;78.50;;;;;;6284599;22;20003;-89
2022/03/22 00:19:08;;;;;;;8.75;3.85;;;6.00;79.20;;;;;;6283526;22;20437;-89
2022/03/22 00:21:35;;;;;;;8.75;4.03;;;6.00;79.40;;;;;;6283084;22;20361;-89
2022/03/22 00:24:01;;;;;;;8.77;4.07;;;5.90;79.40;;;;;;6285143;22;20796;-89
2022/03/22 00:26:27;;;;;;;9.00;4.07;;;5.90;79.60;;;;;;6287419;22;20025;-89
2022/03/22 00:28:53;;;;;;;7.28;3.72;;;5.90;80.40;;;;;;6288475;22;20003;-89
2022/03/22 00:31:19;;;;;;;9.30;4.20;;;5.80;80.90;;;;;;6315901;22;20058;-89
2022/03/22 00:33:45;;;;;;;9.32;4.13;;;5.80;81.10;;;;;;6288923;22;19999;-89
2022/03/22 00:36:10;;;;;;;7.20;3.55;;;5.80;79.60;;;;;;6290225;22;20460;-89
2022/03/22 00:38:39;;;;;;;9.65;3.90;;;5.70;78.70;;;;;;6316322;22;20000;-89
2022/03/22 00:41:04;;;;;;;9.05;3.83;;;5.70;79.80;;;;;;6318007;22;19995;-89
2022/03/22 00:43:30;;;;;;;10.27;4.13;;;5.70;78.30;;;;;;6317971;22;20012;-89
2022/03/22 00:45:56;;;;;;;9.05;3.88;;;5.70;76.90;;;;;;6289288;22;20007;-89
2022/03/22 00:48:22;;;;;;;9.20;4.30;;;5.60;76.50;;;;;;6289304;22;20341;-89
2022/03/22 00:50:48;;;;;;;11.60;4.03;;;5.60;77.20;;;;;;6288855;22;20003;-89
2022/03/22 00:53:15;;;;;;;10.40;3.47;;;5.60;79.50;;;;;;6288046;22;20014;-89
2022/03/22 00:55:41;;;;;;;12.53;4.13;;;5.60;80.10;;;;;;6288476;22;20086;-89
2022/03/22 00:58:08;;;;;;;10.20;3.73;;;5.60;80.20;;;;;;6315745;22;20325;-89
2022/03/22 01:00:34;;;;;;;11.52;3.85;;;5.60;81.20;;;;;;6288203;22;20003;-89
2022/03/22 01:03:02;;;;;;;10.63;4.00;;;5.60;81.00;;;;;;6288034;22;20003;-89
2022/03/22 01:05:28;;;;;;;14.55;4.43;;;5.60;80.80;;;;;;6315004;22;20025;-89
2022/03/22 01:08:05;;;;;;;8.80;4.03;;;5.60;80.50;;;;;;6288517;22;20496;-89
2022/03/22 01:10:34;;;;;;;8.03;3.70;;;5.50;80.80;;;;;;6286420;22;20021;-89
2022/03/22 01:13:00;;;;;;;8.45;3.97;;;5.50;80.90;;;;;;6287420;22;20018;-89
2022/03/22 01:15:33;;;;;;;6.72;3.38;;;5.50;80.70;;;;;;6287288;22;20022;-89
2022/03/22 01:18:03;;;;;;;8.80;3.72;;;5.50;80.50;;;;;;6287278;22;20006;-90
2022/03/22 01:20:31;;;;;;;7.22;3.75;;;5.50;81.30;;;;;;6287634;22;20007;-88
2022/03/22 01:23:15;;;;;;;9.48;3.90;;;5.40;81.40;;;;;;6315621;22;20025;-88
2022/03/22 01:25:43;;;;;;;8.10;3.90;;;5.40;81.40;;;;;;6287438;22;20014;-88
2022/03/22 01:28:12;;;;;;;8.60;4.10;;;5.40;82.20;;;;;;6286336;22;20007;-89
2022/03/22 01:30:38;;;;;;;9.70;4.38;;;5.40;82.20;;;;;;6314913;22;20429;-89
2022/03/22 01:33:05;;;;;;;8.18;4.10;;;5.30;83.50;;;;;;6287479;22;20000;-89
2022/03/22 01:35:31;;;;;;;9.13;4.27;;;5.30;83.00;;;;;;6287344;22;20076;-89
2022/03/22 01:37:57;;;;;;;10.23;3.83;;;5.30;82.90;;;;;;6314788;22;20064;-88
2022/03/22 01:40:25;;;;;;;9.47;3.77;;;5.20;82.40;;;;;;6314469;22;20007;-89
2022/03/22 01:42:51;;;;;;;8.73;4.07;;;5.30;82.30;;;;;;6288376;22;20014;-89
2022/03/22 01:45:17;;;;;;;8.20;4.07;;;5.40;82.40;;;;;;6286703;22;20011;-89
2022/03/22 01:47:44;;;;;;;9.05;4.28;;;5.20;82.80;;;;;;6287229;22;20038;-89
2022/03/22 01:50:14;;;;;;;9.37;3.87;;;5.20;83.10;;;;;;6314571;22;20026;-88
2022/03/22 01:52:42;;;;;;;6.93;3.63;;;5.30;83.60;;;;;;6314723;22;20082;-88
2022/03/22 01:55:09;;;;;;;6.83;4.13;;;5.20;84.30;;;;;;6313922;22;20079;-89
2022/03/22 01:57:35;;;;;;;11.53;4.30;;;5.10;83.80;;;;;;6288182;22;20003;-88
2022/03/22 02:00:04;;;;;;;8.93;4.17;;;5.10;84.10;;;;;;6314342;22;19999;-88
2022/03/22 02:08:01;;;;;;;9.03;4.03;;;5.00;85.00;;;;;;6315502;22;20083;-89
2022/03/22 02:10:27;;;;;;;9.50;4.73;;;5.00;84.80;;;;;;6287950;22;20356;-88
2022/03/22 02:12:53;;;;;;;8.77;4.27;;;5.00;84.80;;;;;;6287327;22;20352;-88
2022/03/22 02:15:19;;;;;;;9.13;4.17;;;5.00;85.60;;;;;;6313846;22;20048;-89
2022/03/22 02:17:45;;;;;;;10.13;4.33;;;5.00;85.50;;;;;;6287057;22;20401;-88
2022/03/22 02:20:15;;;;;;;8.60;4.13;;;4.90;85.70;;;;;;6285866;22;20004;-88
2022/03/22 02:22:52;;;;;;;9.57;4.13;;;4.90;85.70;;;;;;6286895;22;20026;-88
2022/03/22 02:25:28;;;;;;;11.77;4.17;;;4.90;85.00;;;;;;6313509;22;20079;-88
2022/03/22 02:27:57;;;;;;;13.63;4.50;;;4.90;84.80;;;;;;6289336;22;20052;-89
2022/03/22 02:30:23;;;;;;;9.63;3.97;;;4.90;84.70;;;;;;6288873;22;20013;-89
2022/03/22 02:32:51;;;;;;;9.30;4.67;;;5.00;84.80;;;;;;6285018;22;20094;-88
2022/03/22 02:35:18;;;;;;;12.27;4.83;;;4.90;84.40;;;;;;6283167;22;20471;-87
2022/03/22 02:37:45;;;;;;;11.50;5.00;;;4.90;84.80;;;;;;6285902;22;20033;-89
2022/03/22 02:40:13;;;;;;;11.18;5.53;;;5.00;84.50;;;;;;6288402;22;20000;-89
2022/03/22 02:42:41;;;;;;;13.10;5.87;;;4.90;84.20;;;;;;6290818;22;19996;-88
2022/03/22 02:45:07;;;;;;;12.43;5.13;;;4.90;85.20;;;;;;6290821;22;20007;-89
2022/03/22 02:47:34;;;;;;;12.67;5.10;;;4.90;85.10;;;;;;6288793;22;20456;-87
2022/03/22 02:50:00;;;;;;;15.33;5.60;;;4.80;85.00;;;;;;6314873;22;20076;-88
2022/03/22 02:52:25;;;;;;;10.67;5.80;;;4.80;85.70;;;;;;6287638;22;20007;-87
2022/03/22 02:54:51;;;;;;;10.70;5.43;;;4.90;86.50;;;;;;6314470;22;20076;-90
2022/03/22 02:57:17;;;;;;;9.50;4.83;;;4.70;86.80;;;;;;6315359;22;20078;-89
2022/03/22 02:59:44;;;;;;;10.97;5.47;;;4.80;86.40;;;;;;6312909;22;20019;-89
2022/03/22 03:02:09;;;;;;;10.40;5.10;;;4.60;86.20;;;;;;6283119;22;20086;-88
2022/03/22 03:04:35;;;;;;;11.80;4.90;;;4.60;86.90;;;;;;6314036;22;20030;-88
2022/03/22 03:07:01;;;;;;;9.70;4.23;;;4.60;86.90;;;;;;6316411;22;20007;-89
2022/03/22 03:09:26;;;;;;;8.90;4.63;;;4.60;87.20;;;;;;6288908;22;20015;-89
2022/03/22 03:11:52;;;;;;;13.17;5.20;;;4.60;87.50;;;;;;6288689;22;20061;-89
2022/03/22 03:17:02;;;;;;;10.60;4.43;;;4.50;87.70;;;;;;6317238;22;20061;-87
2022/03/22 03:19:27;;;;;;;12.37;4.70;;;4.50;88.10;;;;;;6288778;22;20013;-88
2022/03/22 03:21:53;;;;;;;11.23;5.20;;;4.50;87.90;;;;;;6288327;22;20519;-88
2022/03/22 03:24:20;;;;;;;12.17;5.03;;;4.50;87.90;;;;;;6315626;22;20030;-88
2022/03/22 03:26:45;;;;;;;10.13;5.10;;;4.50;88.50;;;;;;6288567;22;20014;-89
2022/03/22 03:29:11;;;;;;;10.30;4.90;;;4.60;88.60;;;;;;6289200;22;20007;-89
2022/03/22 03:31:36;;;;;;;8.77;4.70;;;4.40;88.80;;;;;;6316124;22;20041;-89
2022/03/22 03:34:02;;;;;;;10.73;4.90;;;4.40;88.70;;;;;;6315685;22;20003;-89
2022/03/22 03:36:28;;;;;;;12.57;5.37;;;4.40;88.60;;;;;;6290322;22;20007;-89
2022/03/22 03:38:54;;;;;;;9.97;4.70;;;4.40;89.40;;;;;;6318066;22;20026;-88
2022/03/22 03:47:11;;;;;;;10.63;4.97;;;4.30;89.50;;;;;;6313575;22;20063;-88
2022/03/22 03:49:52;;;;;;;10.07;4.97;;;4.40;90.00;;;;;;6284571;22;20005;-89
2022/03/22 03:52:34;;;;;;;12.30;5.37;;;4.30;89.80;;;;;;6311721;22;20004;-88
2022/03/22 03:55:01;;;;;;;;;;;4.30;90.00;;;;;;6283915;22;20421;-89
2022/03/22 03:57:27;;;;;;;11.50;5.37;;;4.20;89.30;;;;;;6284015;22;19906;-89
2022/03/22 03:59:54;;;;;;;11.33;5.20;;;4.30;90.00;;;;;;6285124;22;20097;-89
2022/03/22 04:02:21;;;;;;;14.73;5.00;;;4.20;90.40;;;;;;6285003;22;20029;-89
2022/03/22 04:04:51;;;;;;;15.47;5.00;;;4.20;90.50;;;;;;6285253;22;20114;-89
2022/03/22 04:07:23;;;;;;;11.23;5.60;;;4.20;90.70;;;;;;6312683;22;20004;-88
2022/03/22 04:09:49;;;;;;;13.03;5.00;;;4.20;90.80;;;;;;6285316;22;20011;-89
2022/03/22 04:12:15;;;;;;;8.53;4.43;;;4.10;90.90;;;;;;6313274;22;20018;-88
2022/03/22 04:14:41;;;;;;;11.60;5.60;;;4.20;91.10;;;;;;6285942;22;20004;-89
2022/03/22 04:17:08;;;;;;;12.43;5.20;;;4.10;91.10;;;;;;6313681;22;20002;-88
2022/03/22 04:19:35;;;;;;;12.10;5.37;;;4.20;91.30;;;;;;6285935;22;19999;-88
2022/03/22 04:22:02;;;;;;;10.63;5.30;;;4.10;91.60;;;;;;6291809;22;20353;-87
2022/03/22 04:24:28;;;;;;;10.97;5.37;;;4.10;91.50;;;;;;6307475;22;20030;-87
2022/03/22 04:26:55;;;;;;;11.43;4.90;;;4.00;91.60;;;;;;6308860;22;20076;-87
2022/03/22 04:34:49;;;;;;;13.87;5.27;;;3.90;91.70;;;;;;6305132;22;20010;-87
2022/03/22 04:37:16;;;;;;;12.23;5.80;;;3.80;91.70;;;;;;6305503;22;20003;-87
2022/03/22 04:39:43;;;;;;;11.43;5.13;;;3.80;91.90;;;;;;6303228;22;20019;-87
2022/03/22 04:42:10;;;;;;;11.30;5.50;;;3.80;92.30;;;;;;6276509;22;20089;-87
2022/03/22 04:44:36;;;;;;;16.97;5.87;;;3.80;91.90;;;;;;6274285;22;20011;-87
2022/03/22 04:47:02;;;;;;;11.00;5.50;;;3.80;92.20;;;;;;6277177;22;20035;-87
2022/03/22 04:49:29;;;;;;;14.93;5.67;;;3.80;92.40;;;;;;6304975;22;20745;-87
2022/03/22 04:57:25;;;;;;;11.13;5.03;;;3.70;93.20;;;;;;6300484;22;20007;-86
2022/03/22 04:59:51;;;;;;;11.70;5.07;;;3.70;93.30;;;;;;6278227;22;20010;-87
2022/03/22 05:02:16;;;;;;;11.23;5.10;;;3.60;93.50;;;;;;6288660;22;20003;-87
2022/03/22 05:04:42;;;;;;;14.43;5.77;;;3.60;93.50;;;;;;6290555;22;20010;-87
2022/03/22 05:07:09;;;;;;;15.57;5.97;;;3.50;93.70;;;;;;6286165;22;20016;-87
2022/03/22 05:09:35;;;;;;;13.40;5.50;;;3.50;93.90;;;;;;6318490;22;19995;-86
2022/03/22 05:12:02;;;;;;;12.33;5.47;;;3.50;94.40;;;;;;6310005;22;20012;-87
2022/03/22 05:14:28;;;;;;;10.23;5.17;;;3.50;94.40;;;;;;6309637;22;20007;-87
2022/03/22 05:16:56;;;;;;;14.77;5.67;;;3.50;94.40;;;;;;6309294;22;20086;-87
2022/03/22 05:19:22;;;;;;;13.50;5.57;;;3.50;94.60;;;;;;6305738;22;20331;-87
2022/03/22 05:21:48;;;;;;;11.27;5.57;;;3.40;95.00;;;;;;6305209;22;20014;-87
2022/03/22 05:24:13;;;;;;;13.47;5.47;;;3.40;95.00;;;;;;6277644;22;20011;-87
2022/03/22 05:26:39;;;;;;;10.53;5.10;;;3.40;95.30;;;;;;6277816;22;20034;-87
2022/03/22 05:29:05;;;;;;;10.23;5.57;;;3.40;95.60;;;;;;6277231;22;20003;-86
2022/03/22 05:31:32;;;;;;;11.33;5.20;;;3.40;95.70;;;;;;6277256;22;20003;-87
2022/03/22 05:34:01;;;;;;;18.53;5.70;;;3.40;95.60;;;;;;6303764;22;19999;-86
2022/03/22 05:36:27;;;;;;;11.57;5.30;;;3.40;95.80;;;;;;6277320;22;19999;-87
2022/03/22 05:38:53;;;;;;;13.17;5.73;;;3.50;96.00;;;;;;6303691;22;20002;-87
2022/03/22 05:41:20;;;;;;;13.30;5.63;;;3.50;95.80;;;;;;6276364;22;20049;-87
2022/03/22 05:43:46;;;;;;;16.87;5.93;;;3.50;95.90;;;;;;6276411;22;20022;-87
2022/03/22 05:46:12;;;;;;;12.33;5.13;;;3.50;95.80;;;;;;6275923;22;19999;-87
2022/03/22 05:48:38;;;;;;;13.03;4.70;;;3.40;96.10;;;;;;6275975;22;20060;-87
2022/03/22 05:51:04;;;;;;;11.23;5.50;;;3.60;95.90;;;;;;6303598;22;19995;-87
2022/03/22 05:53:30;;;;;;;10.53;4.83;;;3.50;96.00;;;;;;6302884;22;20035;-86
2022/03/22 05:55:57;;;;;;;13.03;5.20;;;3.50;95.90;;;;;;6275639;22;20003;-87
2022/03/22 05:58:24;;;;;;;10.23;5.23;;;3.50;95.90;;;;;;6282663;22;20011;-86
2022/03/22 06:00:49;;;;;;;11.93;5.50;;;3.60;96.00;;;;;;6276847;22;20309;-87
2022/03/22 06:03:15;;;;;;;12.43;5.13;;;3.60;95.90;;;;;;6276189;22;20038;-87
2022/03/22 06:05:42;;;;;;;12.83;4.50;;;3.50;96.00;;;;;;6276485;22;20071;-86
2022/03/22 06:08:08;;;;;;;10.77;5.13;;;3.70;96.30;;;;;;6273274;22;20620;-87
2022/03/22 06:10:34;;;;;;;11.80;5.37;;;3.70;96.30;;;;;;6279062;22;20033;-89
2022/03/22 06:12:59;;;;;;;13.13;4.87;;;3.70;96.30;;;;;;6305484;22;20071;-89
2022/03/22 06:15:31;;;;;;;13.20;5.70;;;3.70;96.30;;;;;;6278800;22;20473;-88
2022/03/22 06:18:09;;;;;;;10.93;4.87;;;3.80;96.40;;;;;;6305691;22;20433;-89
2022/03/22 06:20:37;;;;;;;12.90;5.13;;;3.80;96.10;;;;;;6276824;22;20060;-89
2022/03/22 06:23:07;;;;;;;12.17;5.23;;;3.90;96.30;;;;;;6279602;22;20014;-89
2022/03/22 06:25:35;;;;;;;11.13;4.70;;;4.00;96.40;;;;;;6279117;22;20383;-90
2022/03/22 06:28:04;;;;;;;9.47;4.93;;;4.10;96.40;;;;;;6279293;22;20000;-88
2022/03/22 06:30:30;;;;;;;13.07;5.33;;;4.10;96.20;;;;;;6305002;22;20007;-88
2022/03/22 06:33:10;;;;;;;12.67;5.17;;;4.20;96.00;;;;;;6277499;22;20398;-88
2022/03/22 06:35:36;;;;;;;13.63;5.07;;;4.30;95.90;;;;;;6278034;22;20509;-88
2022/03/22 06:38:03;;;;;;;11.30;4.80;;;4.40;95.80;;;;;;6279029;22;20010;-89
2022/03/22 06:40:33;;;;;;;10.70;5.17;;;4.50;95.60;;;;;;6277028;22;20119;-87
2022/03/22 06:43:01;;;;;;;11.23;5.73;;;4.60;95.20;;;;;;6276627;22;20103;-88
2022/03/22 06:45:27;;;;;;;12.33;5.33;;;4.70;94.90;;;;;;6278093;22;20030;-89
2022/03/22 06:47:54;;;;;;;13.70;5.20;;;4.80;94.70;;;;;;6280275;22;20003;-90
2022/03/22 06:50:20;;;;;;;10.13;5.30;;;4.90;94.10;;;;;;6280713;22;20068;-90
2022/03/22 06:52:46;;;;;;;10.73;5.17;;;4.90;94.00;;;;;;6307691;22;20006;-90
2022/03/22 06:55:16;;;;;;;12.80;5.83;;;5.00;93.90;;;;;;6280062;22;20003;-91
2022/03/22 06:57:51;;;;;;;12.37;5.20;;;5.00;93.10;;;;;;6280444;22;20003;-90
2022/03/22 07:00:20;;;;;;;12.50;5.70;;;5.10;93.20;;;;;;6280848;22;20000;-89
2022/03/22 07:02:48;;;;;;;17.90;6.07;;;5.10;92.90;;;;;;6280543;22;20031;-89
2022/03/22 07:05:15;;;;;;;12.17;5.73;;;5.30;92.90;;;;;;6278839;22;20011;-88
2022/03/22 07:07:41;;;;;;;14.70;5.17;;;5.30;93.00;;;;;;6300400;22;20023;-88
2022/03/22 07:10:20;;;;;;;10.87;5.27;;;5.40;93.10;;;;;;6279700;22;20007;-89
2022/03/22 07:13:01;;;;;;;14.27;5.93;;;5.50;93.00;;;;;;6307548;22;20679;-89
2022/03/22 07:15:35;;;;;;;14.70;5.93;;;5.70;92.60;;;;;;6307148;22;19999;-89
2022/03/22 07:18:03;;;;;;;10.97;5.37;;;5.70;92.00;;;;;;6308186;22;20003;-89
2022/03/22 07:20:29;;;;;;;11.80;6.10;;;5.90;92.00;;;;;;6307939;22;19999;-87
2022/03/22 07:22:55;;;;;;;12.27;5.80;;;5.90;91.90;;;;;;6277242;22;20072;-87
2022/03/22 07:25:26;;;;;;;11.97;5.67;;;5.90;91.90;;;;;;6277077;22;20015;-90
2022/03/22 07:27:54;;;;;;;10.27;4.80;;;6.10;92.30;;;;;;6279708;22;20034;-89
2022/03/22 07:30:21;;;;;;;13.70;5.50;;;6.20;92.00;;;;;;6279417;22;20007;-89
2022/03/22 07:32:47;;;;;;;12.87;5.87;;;6.20;92.00;;;;;;6305922;22;20074;-90
2022/03/22 07:35:14;;;;;;;14.90;5.43;;;6.30;91.70;;;;;;6279394;22;20315;-90
2022/03/22 07:37:40;;;;;;;11.10;5.03;;;6.40;91.50;;;;;;6279085;22;20010;-89
2022/03/22 07:40:08;;;;;;;12.70;5.30;;;6.30;91.60;;;;;;6280014;22;20007;-89
2022/03/22 07:42:44;;;;;;;13.73;6.20;;;6.50;91.50;;;;;;6306993;22;20013;-90
2022/03/22 07:45:11;;;;;;;11.13;5.50;;;6.40;91.50;;;;;;6279669;22;20010;-90
2022/03/22 07:47:37;;;;;;;14.48;5.75;;;6.40;92.00;;;;;;6280051;22;20000;-89
2022/03/22 07:52:58;;;;;;;12.47;5.70;;;6.40;92.30;;;;;;6304366;22;20014;-88
2022/03/22 07:55:28;;;;;;;10.57;5.32;;;6.60;92.20;;;;;;6299492;22;20003;-88
2022/03/22 07:57:54;;;;;;;13.20;6.38;;;6.40;92.70;;;;;;6282632;22;19995;-87
2022/03/22 08:00:20;;;;;;;12.60;5.88;;;6.70;92.60;;;;;;6304967;22;20006;-88
2022/03/22 08:02:56;;;;;;;13.02;6.57;;;6.60;92.50;;;;;;6277137;22;20513;-88
2022/03/22 08:05:25;;;;;;;13.47;6.93;;;6.60;92.90;;;;;;6301224;22;20006;-88
2022/03/22 08:07:56;;;;;;;11.77;6.18;;;6.60;93.00;;;;;;6276896;22;20622;-89
2022/03/22 08:10:23;;;;;;;12.93;5.30;;;6.80;92.80;;;;;;6277888;22;20007;-88
2022/03/22 08:12:52;;;;;;;11.07;5.22;;;7.00;92.20;;;;;;6277757;22;20468;-88
2022/03/22 08:15:17;;;;;;;10.93;5.10;;;7.30;91.90;;;;;;6281237;22;20004;-88
2022/03/22 08:17:44;;;;;;;11.55;5.40;;;7.40;91.70;;;;;;6287737;22;20004;-88
2022/03/22 08:20:11;;;;;;;11.90;6.05;;;7.60;91.40;;;;;;6305691;22;20018;-88
2022/03/22 08:22:51;;;;;;;10.55;5.55;;;7.70;90.80;;;;;;6276687;22;20050;-89
2022/03/22 08:47:05;;;;;;;;;;;;;;;;;;;;;
2022/03/22 08:49:34;;;;;;;15.43;5.72;;;9.00;86.90;;;;;;6304767;22;20086;-87
2022/03/22 08:52:02;;;;;;;10.00;5.25;;;8.90;85.00;;;;;;6275959;22;20064;-88
2022/03/22 08:54:35;;;;;;;11.65;5.80;;;9.10;86.20;;;;;;6275935;22;20450;-88
2022/03/22 08:58:06;;;;;;;;;;;;;;;;;;;;;
2022/03/22 09:00:51;;;;;;;11.77;5.32;;;9.10;85.50;;;;;;6291769;22;20078;-88
2022/03/22 09:03:44;;;;;;;10.65;5.13;;;9.40;85.50;;;;;;6276435;22;20350;-89
2022/03/22 09:06:32;;;;;;;13.38;5.28;;;9.50;85.00;;;;;;6302182;22;20446;-89
2022/03/22 09:09:23;;;;;;;11.40;4.93;;;9.60;85.50;;;;;;6277777;22;20003;-88
2022/03/22 09:12:21;;;;;;;10.15;5.50;;;9.70;84.70;;;;;;6277026;22;20015;-89
2022/03/22 09:14:53;;;;;;;13.93;5.90;;;9.70;85.30;;;;;;6279513;22;20042;-89
2022/03/22 09:18:17;;;;;;;12.23;5.93;;;9.70;84.40;;;;;;6281736;22;20341;-89
2022/03/22 09:20:51;;;;;;;13.00;5.22;;;9.90;84.90;;;;;;6283896;22;20413;-88
2022/03/22 09:23:22;;;;;;;11.40;5.10;;;10.10;84.90;;;;;;6278539;22;20032;-88
2022/03/22 09:25:58;;;;;;;10.18;4.75;;;10.30;84.10;;;;;;6277560;22;20004;-89
2022/03/22 09:29:08;;;;;;;;;;;;;;;;;;;;;
2022/03/22 09:31:34;;;;;;;10.45;5.22;;;10.60;82.10;;;;;;6326374;22;20117;-89
2022/03/22 09:35:06;;;;;;;9.35;4.90;;;10.60;81.30;;;;;;6339431;22;20002;-89
2022/03/22 09:37:39;;;;;;;10.55;5.28;;;10.90;81.30;;;;;;6367918;22;20004;-86
2022/03/22 09:40:33;;;;;;;13.05;5.53;;;11.20;80.10;;;;;;6340853;22;20017;-86
2022/03/22 09:43:17;;;;;;;11.00;4.78;;;11.40;79.20;;;;;;6276588;22;19999;-87
2022/03/22 09:45:51;;;;;;;8.43;4.85;;;11.60;80.00;;;;;;6307945;22;20005;-87
2022/03/22 09:48:25;;;;;;;8.48;4.78;;;11.90;79.90;;;;;;6308784;22;20415;-88
2022/03/22 09:53:49;;;;;;;9.85;5.60;;;12.10;80.50;;;;;;6340037;22;20123;-88
2022/03/22 09:57:07;;;;;;;11.38;5.55;;;12.30;79.90;;;;;;6313053;22;20002;-89
2022/03/22 10:03:06;;;;;;;10.30;4.88;;;12.80;80.30;;;;;;6302321;22;20432;-87
2022/03/22 10:05:53;;;;;;;12.75;5.78;;;13.00;79.20;;;;;;6310093;22;20086;-87
2022/03/22 10:08:44;;;;;;;14.60;5.88;;;13.10;78.90;;;;;;6310633;22;20436;-87
2022/03/22 10:11:13;;;;;;;11.02;5.43;;;13.20;77.40;;;;;;6310210;22;20282;-88
2022/03/22 10:17:59;;;;;;;9.45;5.32;;;13.30;75.50;;;;;;6218010;22;20008;-87
2022/03/22 10:23:21;;;;;;;9.85;5.55;;;13.50;77.00;;;;;;6320571;22;20026;-88
2022/03/22 10:29:31;;;;;;;10.38;4.97;;;13.70;75.30;;;;;;6301108;22;20007;-88
2022/03/22 10:37:04;;;;;;;10.07;5.30;;;13.90;72.80;;;;;;6372125;22;20022;-89
2022/03/22 10:39:54;;;;;;;10.60;5.13;;;14.20;73.40;;;;;;6381976;22;19994;-89
2022/03/22 10:42:24;;;;;;;12.70;5.43;;;14.40;70.60;;;;;;6348423;22;20110;-88
2022/03/22 10:44:50;;;;;;;9.38;5.68;;;14.50;70.10;;;;;;6323683;22;20067;-90
2022/03/22 10:47:27;;;;;;;9.85;5.43;;;14.50;70.10;;;;;;6317736;22;20282;-89
2022/03/22 10:50:05;;;;;;;9.38;5.30;;;14.60;68.80;;;;;;6318554;22;20064;-90
2022/03/22 10:52:37;;;;;;;11.88;5.05;;;14.70;68.90;;;;;;6319813;22;20092;-90
2022/03/22 10:55:04;;;;;;;;;;;14.70;67.50;;;;;;6320109;22;20003;-90
2022/03/22 10:57:37;;;;;;;9.32;4.78;;;14.90;67.90;;;;;;6320920;22;19955;-89
2022/03/22 11:00:10;;;;;;;9.85;5.38;;;15.20;67.70;;;;;;6347632;22;20001;-89
2022/03/22 11:02:39;;;;;;;10.52;5.05;;;15.10;66.40;;;;;;6319756;22;20003;-89
2022/03/22 11:05:14;;;;;;;9.10;5.20;;;15.10;66.80;;;;;;6319438;22;20048;-90
2022/03/22 11:07:42;;;;;;;10.85;5.18;;;15.20;65.20;;;;;;6351094;22;20003;-90
2022/03/22 11:10:08;;;;;;;10.77;5.35;;;15.20;66.40;;;;;;6351172;22;20010;-90
2022/03/22 11:12:44;;;;;;;10.20;4.97;;;15.30;66.20;;;;;;6348393;22;20017;-91
2022/03/22 11:15:21;;;;;;;8.75;4.72;;;15.50;64.60;;;;;;6347839;22;20060;-91
2022/03/22 11:17:51;;;;;;;10.57;5.38;;;15.70;64.40;;;;;;6347639;22;20437;-90
2022/03/22 11:20:28;;;;;;;10.38;5.40;;;15.80;63.70;;;;;;6317380;22;20345;-90
2022/03/22 11:23:03;;;;;;;14.10;6.10;;;15.90;64.10;;;;;;6318700;22;20003;-91
2022/03/22 11:28:40;;;;;;;11.50;5.47;;;16.00;63.60;;;;;;6327957;22;20023;-90
2022/03/22 11:31:18;;;;;;;10.35;5.55;;;15.90;63.70;;;;;;6322161;22;19999;-91
2022/03/22 11:36:39;;;;;;;9.85;5.68;;;16.00;64.40;;;;;;6349163;22;20388;-91
2022/03/22 11:39:05;;;;;;;9.63;5.63;;;15.70;63.90;;;;;;6319484;22;20089;-91
2022/03/22 11:44:38;;;;;;;9.73;4.93;;;16.10;63.50;;;;;;6356180;22;20013;-91
2022/03/22 11:47:07;;;;;;;11.23;6.30;;;16.20;61.20;;;;;;6322001;22;20003;-90
2022/03/22 11:50:05;;;;;;;11.07;5.72;;;16.50;61.90;;;;;;6319866;22;20029;-91
2022/03/22 11:52:35;;;;;;;8.88;5.03;;;16.60;61.30;;;;;;6327005;22;20068;-91
2022/03/22 11:55:15;;;;;;;10.93;5.30;;;16.60;59.70;;;;;;6323414;22;19999;-90
2022/03/22 11:57:53;;;;;;;8.50;4.97;;;16.60;58.20;;;;;;6327816;22;19998;-89
2022/03/22 12:03:51;;;;;;;9.40;5.45;;;16.80;57.60;;;;;;6278986;22;20007;-91
2022/03/22 12:06:58;;;;;;;9.85;5.05;;;16.90;56.90;;;;;;6328804;22;19995;-91
2022/03/22 12:09:34;;;;;;;10.05;5.32;;;17.00;57.40;;;;;;6325651;22;19999;-91
2022/03/22 12:12:23;;;;;;;9.18;5.03;;;17.20;57.00;;;;;;6352591;22;20013;-91
2022/03/22 12:25:25;;;;;;;9.65;5.03;;;17.00;56.60;;;;;;6267345;22;20026;-91
2022/03/22 12:28:01;;;;;;;12.80;6.03;;;16.80;57.10;;;;;;6325487;22;20007;-91
2022/03/22 12:30:44;;;;;;;9.48;5.15;;;16.90;56.30;;;;;;6325507;22;20092;-89
2022/03/22 12:33:15;;;;;;;11.95;5.75;;;17.00;56.10;;;;;;6320148;22;20006;-89
2022/03/22 12:35:52;;;;;;;10.15;5.60;;;17.20;56.80;;;;;;6319190;22;20071;-89
2022/03/22 12:38:19;;;;;;;13.88;5.93;;;17.30;57.20;;;;;;6321062;22;19999;-90
2022/03/22 12:40:46;;;;;;;11.63;5.80;;;17.50;58.00;;;;;;6320136;22;19998;-91
2022/03/22 12:43:19;;;;;;;11.68;6.30;;;17.80;56.10;;;;;;6319638;22;20074;-90
2022/03/22 12:46:13;;;;;;;9.07;5.50;;;17.80;55.80;;;;;;6319471;22;20007;-92
2022/03/22 12:49:05;;;;;;;12.68;5.90;;;18.10;55.10;;;;;;6300649;22;20003;-92
2022/03/22 12:51:49;;;;;;;11.38;5.85;;;17.90;54.40;;;;;;6327058;22;20057;-92
2022/03/22 12:54:33;;;;;;;12.57;6.00;;;18.10;54.70;;;;;;6324384;22;20003;-91
2022/03/22 12:58:12;;;;;;;9.88;5.72;;;18.30;56.20;;;;;;6325778;22;20005;-90
2022/03/22 13:01:21;;;;;;;;;;;;;;;;;;;;;
2022/03/22 13:03:55;;;;;;;9.40;5.07;;;18.60;55.40;;;;;;6218794;22;19998;-92
2022/03/22 13:06:53;;;;;;;11.45;5.55;;;18.60;53.90;;;;;;6331817;22;20005;-92
2022/03/22 13:12:34;;;;;;;11.18;6.15;;;18.40;55.20;;;;;;6358075;22;20100;-91
2022/03/22 13:15:30;;;;;;;10.77;5.93;;;18.20;54.30;;;;;;6335253;22;20002;-92
2022/03/22 13:17:56;;;;;;;10.27;5.60;;;18.30;54.10;;;;;;6290410;22;19994;-92
2022/03/22 13:20:33;;;;;;;9.43;5.75;;;18.40;53.90;;;;;;6324842;22;19998;-92
2022/03/22 13:22:59;;;;;;;8.40;5.82;;;18.70;52.80;;;;;;6326111;22;20002;-91
2022/03/22 13:25:46;;;;;;;9.93;5.75;;;18.70;52.60;;;;;;6323453;22;20010;-90
2022/03/22 13:28:42;;;;;;;12.52;5.95;;;18.90;52.50;;;;;;6325179;22;20058;-91
2022/03/22 13:31:08;;;;;;;10.57;5.85;;;18.90;51.40;;;;;;6354660;22;20002;-91
2022/03/22 13:33:59;;;;;;;9.57;5.40;;;18.80;51.90;;;;;;6327602;22;20003;-91
2022/03/22 13:36:28;;;;;;;9.32;5.53;;;18.80;51.90;;;;;;6302694;22;20011;-91
2022/03/22 13:38:57;;;;;;;11.05;6.15;;;18.90;52.20;;;;;;6353473;22;19995;-92
2022/03/22 13:41:29;;;;;;;9.45;5.32;;;18.90;51.20;;;;;;6324589;22;19995;-92
2022/03/22 13:43:58;;;;;;;10.38;5.55;;;19.20;51.20;;;;;;6322754;22;20002;-92
2022/03/22 13:46:24;;;;;;;8.77;5.25;;;19.40;50.70;;;;;;6324742;22;19999;-92
2022/03/22 13:49:08;;;;;;;11.00;5.07;;;19.20;50.70;;;;;;6323164;22;20003;-90
2022/03/22 13:51:40;;;;;;;8.73;5.00;;;19.20;50.00;;;;;;6349624;22;20006;-90
2022/03/22 13:54:16;;;;;;;7.63;4.70;;;19.40;49.20;;;;;;6317668;22;20408;-91
2022/03/22 13:56:55;;;;;;;9.48;5.05;;;19.50;46.30;;;;;;6323936;22;20025;-91
2022/03/22 13:59:48;;;;;;;7.78;4.43;;;19.80;49.20;;;;;;6320153;22;20010;-91
2022/03/22 14:02:15;;;;;;;10.10;5.40;;;19.70;47.90;;;;;;6318763;22;20048;-92
2022/03/22 14:04:44;;;;;;;9.35;5.15;;;19.80;48.00;;;;;;6315578;22;20006;-90
2022/03/22 14:07:13;;;;;;;9.68;5.25;;;19.80;49.00;;;;;;6309910;22;20007;-91
2022/03/22 14:09:49;;;;;;;10.80;6.05;;;19.70;49.10;;;;;;6309548;22;20003;-90
2022/03/22 14:12:17;;;;;;;10.27;5.78;;;19.90;48.50;;;;;;6338209;22;20425;-89
2022/03/22 14:14:44;;;;;;;11.05;5.45;;;20.20;49.30;;;;;;6345186;22;20034;-90
2022/03/22 14:17:17;;;;;;;9.23;5.68;;;20.30;48.50;;;;;;6313966;22;20007;-90
2022/03/22 14:19:43;;;;;;;10.32;5.63;;;20.50;49.30;;;;;;6308039;22;20033;-90
2022/03/22 14:22:11;;;;;;;13.15;5.70;;;20.40;49.50;;;;;;6336525;22;20396;-89
2022/03/22 14:24:37;;;;;;;9.00;5.53;;;20.70;48.50;;;;;;6310341;22;20082;-89
2022/03/22 14:27:03;;;;;;;10.32;5.97;;;20.90;49.30;;;;;;6310864;22;20341;-90
2022/03/22 14:29:29;;;;;;;10.65;5.90;;;21.20;48.50;;;;;;6309730;22;20045;-90
2022/03/22 14:31:57;;;;;;;10.35;5.07;;;21.30;47.70;;;;;;6305214;22;20007;-89
2022/03/22 14:37:07;;;;;;;9.50;5.07;;;21.70;47.80;;;;;;6335256;22;20075;-89
2022/03/22 14:39:35;;;;;;;9.75;5.43;;;21.70;47.80;;;;;;6307568;22;20402;-88
2022/03/22 14:42:02;;;;;;;12.35;5.90;;;21.60;47.80;;;;;;6308936;22;20081;-89
2022/03/22 14:44:31;;;;;;;10.75;5.32;;;21.80;47.10;;;;;;6308453;22;19999;-90
2022/03/22 14:46:56;;;;;;;11.38;6.20;;;21.90;46.70;;;;;;6309477;22;19999;-92
2022/03/22 14:49:24;;;;;;;10.35;5.60;;;22.00;47.10;;;;;;6337593;22;19999;-90
2022/03/22 14:54:49;;;;;;;9.57;5.07;;;22.10;46.20;;;;;;6338121;22;20009;-90
2022/03/22 15:00:03;;;;;;;10.23;5.55;;;21.80;46.30;;;;;;6338558;22;20021;-89